Airfield :
LOGIN :

Register | Disclaimer

   EN    FR    IT 

 










Legend :    VFR   Marginal VFR   IFR   Intensive IFR   Very Intensive IFR
Visi :
Ceiling :
>= 8 km
>= 3000ft
5 to 8 km
1000 to 3000 ft
1500m to 5 km
500 to 1000 ft
800 to 1500m
200 to 500 ft
< 800m
< 200 ft
Symbols :   Thunderstorms  Fog  Heavy snow  Heavy precipitations  Wind > 20 kt
SIGMETs :     Misc.  Thunderstorms  Icing  Turbulence  Mountain Waves  Volcanic Ashes






- Airport Elevation : 17 ft
- IATA code : KLR


ESMQ - Kalmar

CURRENT METAR :
  • 131150Z 15005KT 9999 FEW043 07/06 Q1002

EXPIRED METARs :
  • 131120Z 15006KT 9999 FEW022 07/06 Q1002
  • 131050Z 13004KT 9999 FEW022 07/06 Q1003
  • 131020Z VRB03KT 9999 FEW011 SCT032 OVC037 07/05 Q1003
  • 130950Z 17005KT 9999 SCT013 BKN040 07/06 Q1003
  • 130920Z 16004KT 9999 FEW018 07/06 Q1003
  • 130850Z 19003KT 9999 FEW018 BKN020 BKN028 06/05 Q1003

TAF TAF ESMQ
Valid from the 13 at 12:00 until the 13 at 21:00 UTC


131130Z 1312/1321 15004KT 9999 SCT018
PROB40 1318/1321 BKN014



MET'MAP, your aeronautical weather chart ! - Copyright ORBIFLY December 2007 - Disclaimer

ORBIFLY MET'MAP TEAM :

Programming & Development : Alexandra Zaïnal
Concept & Development : Baudouin d'Aumeries
Co-Development & Prog : Marc-Olivier Méhu
Technical & hardware support : Manuel Goepfert

Contact : metmap@orbifly.com




SOURCES & CREDITS :

   NOAA